Time;durP1;ratioP1;P1;durP2;ratioP2;P2;SDS_P1;SDS_P2;PMS_P1;PMS_P2;Temp;Humidity;BMP_temperature;BMP_pressure;BME280_temperature;BME280_humidity;BME280_pressure;Samples;Min_cycle;Max_cycle;Signal;HPM_P1;HPM_P2
2022/10/17 00:00:51;;;;;;;3.88;1.52;;;16.10;99.90;;;;;;5067671;28;20414;-74
2022/10/17 00:03:17;;;;;;;5.55;1.75;;;16.00;99.90;;;;;;5052156;28;20035;-74
2022/10/17 00:05:45;;;;;;;2.65;1.40;;;16.00;99.90;;;;;;5052256;28;20021;-75
2022/10/17 00:08:12;;;;;;;10.05;1.90;;;16.10;99.90;;;;;;5052599;28;20025;-74
2022/10/17 00:10:38;;;;;;;4.18;1.60;;;16.00;99.90;;;;;;5052119;28;20355;-75
2022/10/17 00:13:04;;;;;;;3.50;1.40;;;16.00;99.90;;;;;;5051763;28;20130;-74
2022/10/17 00:15:30;;;;;;;1.85;1.30;;;15.90;99.90;;;;;;5052051;28;20045;-75
2022/10/17 00:17:56;;;;;;;1.77;1.15;;;16.00;99.90;;;;;;5067411;28;20032;-74
2022/10/17 00:20:21;;;;;;;2.20;1.45;;;16.00;99.90;;;;;;5052365;28;20032;-76
2022/10/17 00:22:47;;;;;;;5.47;1.40;;;15.90;99.90;;;;;;5051941;28;20321;-75
2022/10/17 00:25:13;;;;;;;9.57;2.05;;;15.90;99.90;;;;;;5051889;28;20025;-75
2022/10/17 00:27:40;;;;;;;5.43;1.52;;;15.90;99.90;;;;;;5051812;28;20037;-74
2022/10/17 00:30:09;;;;;;;1.42;1.27;;;15.90;99.90;;;;;;5067220;28;20108;-75
2022/10/17 00:32:35;;;;;;;3.72;1.50;;;15.90;99.90;;;;;;5067369;28;20609;-76
2022/10/17 00:35:01;;;;;;;6.38;1.58;;;15.90;99.90;;;;;;5052656;28;20021;-75
2022/10/17 00:37:27;;;;;;;2.72;1.58;;;15.90;99.90;;;;;;5051747;28;20112;-75
2022/10/17 00:39:53;;;;;;;5.85;1.60;;;15.90;99.90;;;;;;5067085;28;20488;-76
2022/10/17 00:42:18;;;;;;;3.45;1.70;;;15.90;99.90;;;;;;5051431;28;20029;-74
2022/10/17 00:44:46;;;;;;;6.90;1.50;;;15.90;99.90;;;;;;5051462;28;25584;-75
2022/10/17 00:47:18;;;;;;;6.35;1.65;;;15.90;99.90;;;;;;5051882;28;20025;-75
2022/10/17 00:49:44;;;;;;;4.90;1.55;;;15.80;99.90;;;;;;5051965;28;20041;-75
2022/10/17 00:52:23;;;;;;;4.05;2.05;;;15.80;99.90;;;;;;5051267;28;20040;-75
2022/10/17 00:54:56;;;;;;;6.13;1.83;;;15.80;99.90;;;;;;5066713;28;20029;-74
2022/10/17 00:57:22;;;;;;;6.68;1.92;;;15.70;99.90;;;;;;5051378;28;20052;-75
2022/10/17 00:59:51;;;;;;;3.45;2.03;;;15.70;99.90;;;;;;5051371;28;20415;-73
2022/10/17 01:02:19;;;;;;;10.90;2.45;;;15.70;99.90;;;;;;5051375;28;20078;-74
2022/10/17 01:04:47;;;;;;;13.52;2.35;;;15.70;99.90;;;;;;5050951;28;20053;-74
2022/10/17 01:07:13;;;;;;;;;;;15.70;99.90;;;;;;5051560;28;20045;-76
2022/10/17 01:09:40;;;;;;;9.40;2.65;;;15.70;99.90;;;;;;5050932;28;20011;-75
2022/10/17 01:12:27;;;;;;;7.80;2.50;;;15.80;99.90;;;;;;5050656;28;20037;-74
2022/10/17 01:15:13;;;;;;;6.72;2.90;;;15.70;99.90;;;;;;5050881;28;20041;-74
2022/10/17 01:18:07;;;;;;;8.13;2.65;;;15.70;99.90;;;;;;5050669;28;20021;-73
2022/10/17 01:20:58;;;;;;;6.45;2.63;;;15.60;99.90;;;;;;5050654;28;20021;-74
2022/10/17 01:23:39;;;;;;;11.32;2.50;;;15.70;99.90;;;;;;5066850;28;20021;-74
2022/10/17 01:26:29;;;;;;;11.77;2.72;;;15.60;99.90;;;;;;5050838;28;20259;-75
2022/10/17 01:29:06;;;;;;;9.07;2.80;;;15.60;99.90;;;;;;5050677;28;20044;-75
2022/10/17 01:31:46;;;;;;;6.60;2.65;;;15.60;99.90;;;;;;5066317;28;20295;-73
2022/10/17 01:34:19;;;;;;;7.57;2.78;;;15.60;99.90;;;;;;5050647;28;20033;-74
2022/10/17 01:36:57;;;;;;;4.45;2.50;;;15.60;99.90;;;;;;5066455;28;20047;-73
2022/10/17 01:39:43;;;;;;;6.13;2.85;;;15.60;99.90;;;;;;5070516;28;20174;-74
2022/10/17 01:42:11;;;;;;;6.22;2.47;;;15.50;99.90;;;;;;5070555;28;20470;-74
2022/10/17 01:44:44;;;;;;;7.60;2.88;;;15.50;99.90;;;;;;5070502;28;20024;-74
2022/10/17 01:47:16;;;;;;;6.40;2.92;;;15.40;99.90;;;;;;5070990;28;20104;-75
2022/10/17 01:49:44;;;;;;;8.63;2.85;;;15.40;99.90;;;;;;5070565;28;20031;-75
2022/10/17 01:52:12;;;;;;;;;;;15.40;99.90;;;;;;5070951;28;20037;-77
2022/10/17 01:54:45;;;;;;;12.02;2.47;;;15.40;99.90;;;;;;5070668;28;20314;-76
2022/10/17 01:57:24;;;;;;;5.82;2.20;;;15.30;99.90;;;;;;5070592;28;20055;-74
2022/10/17 01:59:51;;;;;;;8.05;3.35;;;15.40;99.90;;;;;;5070307;28;20514;-73
2022/10/17 02:02:19;;;;;;;9.80;2.80;;;15.30;99.90;;;;;;5070933;28;20446;-75
2022/10/17 02:04:47;;;;;;;6.90;2.38;;;15.30;99.90;;;;;;5070645;28;20089;-76
2022/10/17 02:07:13;;;;;;;;;;;15.20;99.90;;;;;;5070905;28;20096;-75
2022/10/17 02:09:39;;;;;;;6.38;2.58;;;15.20;99.90;;;;;;5070260;28;19919;-75
2022/10/17 02:12:32;;;;;;;12.10;2.67;;;15.20;99.90;;;;;;5074236;28;20397;-76
2022/10/17 02:15:27;;;;;;;5.95;2.78;;;15.10;99.90;;;;;;5074127;28;20377;-74
2022/10/17 02:17:52;;;;;;;12.32;2.75;;;15.10;99.90;;;;;;5074248;28;20116;-74
2022/10/17 02:20:36;;;;;;;9.65;2.50;;;15.10;99.90;;;;;;5074472;28;20108;-74
2022/10/17 02:23:15;;;;;;;8.52;2.50;;;15.20;99.90;;;;;;5074452;28;20063;-75
2022/10/17 02:25:50;;;;;;;11.35;2.72;;;15.20;99.90;;;;;;5074133;28;20053;-74
2022/10/17 02:28:34;;;;;;;13.45;2.70;;;15.10;99.90;;;;;;5074164;28;20033;-74
2022/10/17 02:31:08;;;;;;;6.53;2.47;;;15.10;99.90;;;;;;5072879;28;20050;-74
2022/10/17 02:33:58;;;;;;;6.40;2.40;;;15.10;99.90;;;;;;5074071;28;20041;-74
2022/10/17 02:36:33;;;;;;;8.07;3.05;;;15.10;99.90;;;;;;5073918;28;20461;-75
2022/10/17 02:39:01;;;;;;;7.15;2.88;;;15.10;99.90;;;;;;5074342;28;20032;-74
2022/10/17 02:41:29;;;;;;;14.30;2.78;;;15.10;99.90;;;;;;5073664;28;20454;-75
2022/10/17 02:43:55;;;;;;;9.98;3.03;;;15.10;99.90;;;;;;5074255;28;20036;-76
2022/10/17 02:46:23;;;;;;;5.20;2.65;;;15.10;99.90;;;;;;5072426;28;20328;-74
2022/10/17 02:48:51;;;;;;;10.73;2.50;;;15.10;99.90;;;;;;5073462;28;20039;-76
2022/10/17 02:51:23;;;;;;;;;;;15.10;99.90;;;;;;5073914;28;20048;-77
2022/10/17 02:54:31;;;;;;;10.77;2.65;;;15.10;99.90;;;;;;5073599;28;20002;-75
2022/10/17 02:57:04;;;;;;;7.47;2.45;;;15.00;99.90;;;;;;5068451;28;20032;-75
2022/10/17 02:59:32;;;;;;;9.15;2.60;;;15.00;99.90;;;;;;5073104;28;20039;-75
2022/10/17 03:02:01;;;;;;;5.93;2.13;;;15.10;99.90;;;;;;5074385;28;20048;-74
2022/10/17 03:04:26;;;;;;;2.97;2.00;;;15.10;99.90;;;;;;5073371;28;20048;-74
2022/10/17 03:06:52;;;;;;;5.75;1.90;;;15.10;99.90;;;;;;5073209;28;20149;-76
2022/10/17 03:09:18;;;;;;;4.75;2.20;;;15.10;99.90;;;;;;5073232;28;20581;-75
2022/10/17 03:11:43;;;;;;;3.40;2.63;;;15.10;99.90;;;;;;5071932;28;20037;-75
2022/10/17 03:14:09;;;;;;;5.13;2.83;;;15.20;99.90;;;;;;5074328;28;20032;-75
2022/10/17 03:16:35;;;;;;;5.15;2.47;;;15.30;99.90;;;;;;5073056;28;20454;-73
2022/10/17 03:19:01;;;;;;;5.18;2.80;;;15.30;99.90;;;;;;5073017;28;20355;-75
2022/10/17 03:21:26;;;;;;;5.68;2.85;;;15.30;99.90;;;;;;5071745;28;20095;-75
2022/10/17 03:23:52;;;;;;;4.95;2.22;;;15.40;99.90;;;;;;5072077;28;20418;-74
2022/10/17 03:26:17;;;;;;;5.00;2.60;;;15.40;99.90;;;;;;5072160;28;20434;-74
2022/10/17 03:28:43;;;;;;;4.72;2.38;;;15.50;99.90;;;;;;5072054;28;20024;-73
2022/10/17 03:31:12;;;;;;;5.80;2.75;;;15.50;99.90;;;;;;5071599;28;20024;-73
2022/10/17 03:33:37;;;;;;;2.78;2.25;;;15.50;99.90;;;;;;5072727;28;20044;-75
2022/10/17 03:36:08;;;;;;;3.50;2.35;;;15.60;99.90;;;;;;5071779;28;20348;-73
2022/10/17 03:38:34;;;;;;;2.83;2.10;;;15.60;99.90;;;;;;5072550;28;20043;-74
2022/10/17 03:41:01;;;;;;;4.10;2.47;;;15.70;99.90;;;;;;5072880;28;20450;-74
2022/10/17 03:43:26;;;;;;;8.35;2.45;;;15.70;99.90;;;;;;5071191;28;20032;-75
2022/10/17 03:45:52;;;;;;;6.22;2.35;;;15.70;99.90;;;;;;5071375;28;20059;-74
2022/10/17 03:48:18;;;;;;;2.92;2.05;;;15.70;99.90;;;;;;5072371;28;20032;-74
2022/10/17 03:50:50;;;;;;;6.80;2.50;;;15.80;99.90;;;;;;5072370;28;20029;-74
2022/10/17 03:53:16;;;;;;;3.92;2.38;;;15.80;99.90;;;;;;5072659;28;20056;-74
2022/10/17 03:55:42;;;;;;;5.85;1.90;;;15.80;99.90;;;;;;5072273;28;20067;-74
2022/10/17 03:58:07;;;;;;;3.20;2.30;;;15.80;99.90;;;;;;5072245;28;20044;-75
2022/10/17 04:00:35;;;;;;;7.25;2.55;;;15.80;99.90;;;;;;5072027;28;20043;-72
2022/10/17 04:03:01;;;;;;;4.75;2.22;;;15.90;99.90;;;;;;5072046;28;20106;-74
2022/10/17 04:05:26;;;;;;;3.70;2.47;;;15.90;99.90;;;;;;5071712;28;20494;-73
2022/10/17 04:07:52;;;;;;;9.38;2.95;;;15.90;99.90;;;;;;5071213;28;20021;-75
2022/10/17 04:10:18;;;;;;;4.63;2.40;;;15.90;99.90;;;;;;5070830;28;20032;-75
2022/10/17 04:12:43;;;;;;;13.13;2.70;;;15.90;99.90;;;;;;5071741;28;20500;-75
2022/10/17 04:15:09;;;;;;;5.35;2.50;;;16.00;99.90;;;;;;5071796;28;20024;-74
2022/10/17 04:17:35;;;;;;;4.30;2.33;;;15.90;99.90;;;;;;5071777;28;20040;-73
2022/10/17 04:20:01;;;;;;;5.85;2.50;;;16.00;99.90;;;;;;5071254;28;20029;-73
2022/10/17 04:22:27;;;;;;;5.57;2.22;;;16.00;99.90;;;;;;5071634;28;20425;-74
2022/10/17 04:24:52;;;;;;;4.32;2.42;;;16.00;99.90;;;;;;5071642;28;20040;-74
2022/10/17 04:27:18;;;;;;;5.65;2.50;;;16.00;99.90;;;;;;5071580;28;20036;-74
2022/10/17 04:29:43;;;;;;;3.53;2.50;;;16.00;99.90;;;;;;5071484;28;20093;-74
2022/10/17 04:32:09;;;;;;;8.90;2.17;;;16.10;99.90;;;;;;5070566;28;20055;-75
2022/10/17 04:34:35;;;;;;;3.15;2.47;;;16.10;99.90;;;;;;5070427;28;20036;-75
2022/10/17 04:37:04;;;;;;;3.85;1.83;;;16.10;99.90;;;;;;5071889;28;20039;-75
2022/10/17 04:39:30;;;;;;;3.40;2.05;;;16.10;99.90;;;;;;5070229;28;20479;-74
2022/10/17 04:41:55;;;;;;;4.03;2.38;;;16.20;99.90;;;;;;5070306;28;20115;-75
2022/10/17 04:44:22;;;;;;;7.10;2.47;;;16.20;99.90;;;;;;5071683;28;20029;-76
2022/10/17 04:46:48;;;;;;;4.82;2.45;;;16.10;99.90;;;;;;5071141;28;20098;-76
2022/10/17 04:49:14;;;;;;;9.35;2.30;;;16.10;99.90;;;;;;5071334;28;20032;-75
2022/10/17 04:51:39;;;;;;;3.95;2.33;;;16.20;99.90;;;;;;5071355;28;20054;-76
2022/10/17 04:54:06;;;;;;;5.43;2.42;;;16.20;99.90;;;;;;5071162;28;20123;-75
2022/10/17 04:56:31;;;;;;;3.60;2.75;;;16.20;99.90;;;;;;5071561;28;20301;-74
2022/10/17 04:58:58;;;;;;;5.07;2.47;;;16.30;99.90;;;;;;5071476;28;20074;-74
2022/10/17 05:01:24;;;;;;;5.00;2.10;;;16.30;99.90;;;;;;5071208;28;20542;-74
2022/10/17 05:03:52;;;;;;;4.60;2.53;;;16.20;99.90;;;;;;5071242;28;20036;-75
2022/10/17 05:06:20;;;;;;;7.47;2.33;;;16.30;99.90;;;;;;5071115;28;20024;-73
2022/10/17 05:08:46;;;;;;;4.05;2.40;;;16.30;99.90;;;;;;5071080;28;20093;-74
2022/10/17 05:11:23;;;;;;;4.72;2.17;;;16.30;99.90;;;;;;5071295;28;20481;-74
2022/10/17 05:14:00;;;;;;;3.37;2.30;;;16.30;99.90;;;;;;5071151;28;20040;-74
2022/10/17 05:16:27;;;;;;;7.32;2.40;;;16.30;99.90;;;;;;5071221;28;20257;-74
2022/10/17 05:18:55;;;;;;;3.78;2.03;;;16.30;99.90;;;;;;5070830;28;20545;-74
2022/10/17 05:21:23;;;;;;;7.07;2.42;;;16.30;99.90;;;;;;5070948;28;20095;-73
2022/10/17 05:23:49;;;;;;;;;;;16.40;99.90;;;;;;5071261;28;20378;-74
2022/10/17 05:26:15;;;;;;;5.35;2.78;;;16.30;99.90;;;;;;5071118;28;19908;-73
2022/10/17 05:28:41;;;;;;;5.03;1.90;;;16.30;99.90;;;;;;5070801;28;20037;-73
2022/10/17 05:31:08;;;;;;;5.70;2.63;;;16.30;99.90;;;;;;5070577;28;20082;-74
2022/10/17 05:33:35;;;;;;;6.22;2.35;;;16.30;99.90;;;;;;5070604;28;20036;-74
2022/10/17 05:36:01;;;;;;;3.97;2.15;;;16.40;99.90;;;;;;5070585;28;20090;-74
2022/10/17 05:38:27;;;;;;;3.95;2.17;;;16.40;99.90;;;;;;5069489;28;20021;-73
2022/10/17 05:41:03;;;;;;;6.60;2.30;;;16.40;99.90;;;;;;5071090;28;20454;-75
2022/10/17 05:43:29;;;;;;;4.57;2.38;;;16.40;99.90;;;;;;5070317;28;20277;-75
2022/10/17 05:45:55;;;;;;;2.63;2.00;;;16.40;99.90;;;;;;5061731;28;20082;-72
2022/10/17 05:48:22;;;;;;;7.05;2.00;;;16.40;99.90;;;;;;5049104;28;20029;-73
2022/10/17 05:50:48;;;;;;;5.50;2.63;;;16.50;99.90;;;;;;5049137;28;20087;-71
2022/10/17 05:53:15;;;;;;;4.22;1.90;;;16.40;99.90;;;;;;5050896;28;20037;-74
2022/10/17 05:55:41;;;;;;;4.75;2.25;;;16.40;99.90;;;;;;5050229;28;20082;-75
2022/10/17 05:58:07;;;;;;;2.42;2.00;;;16.40;99.90;;;;;;5050313;28;20401;-74
2022/10/17 06:00:33;;;;;;;6.00;2.10;;;16.50;99.90;;;;;;5050518;28;20040;-74
2022/10/17 06:02:58;;;;;;;2.88;1.80;;;16.50;99.90;;;;;;5050648;28;20040;-75
2022/10/17 06:05:24;;;;;;;8.38;2.25;;;16.50;99.90;;;;;;5050790;28;20114;-75
2022/10/17 06:07:51;;;;;;;4.20;2.10;;;16.50;99.90;;;;;;5050543;28;20365;-74
2022/10/17 06:10:17;;;;;;;4.70;1.95;;;16.50;99.90;;;;;;5050146;28;20037;-74
2022/10/17 06:12:43;;;;;;;3.20;2.20;;;16.50;99.90;;;;;;5065971;28;20114;-75
2022/10/17 06:15:10;;;;;;;8.30;2.20;;;16.50;99.90;;;;;;5049433;28;20374;-75
2022/10/17 06:17:36;;;;;;;10.32;2.38;;;16.50;99.90;;;;;;5066113;28;20111;-78
2022/10/17 06:20:02;;;;;;;7.15;2.28;;;16.50;99.90;;;;;;5066889;28;20455;-75
2022/10/17 06:22:28;;;;;;;12.80;6.55;;;16.50;99.90;;;;;;5050639;28;20045;-78
2022/10/17 06:24:54;;;;;;;5.35;2.75;;;16.60;99.90;;;;;;5050562;28;20064;-74
2022/10/17 06:27:21;;;;;;;9.05;3.60;;;16.60;99.90;;;;;;5050386;28;20044;-74
2022/10/17 06:29:47;;;;;;;9.15;4.00;;;16.60;99.90;;;;;;5050344;28;20021;-75
2022/10/17 06:32:14;;;;;;;5.43;3.28;;;16.60;99.90;;;;;;5050650;28;20017;-75
2022/10/17 06:34:40;;;;;;;3.00;2.40;;;16.60;99.90;;;;;;5050509;28;20052;-73
2022/10/17 06:37:05;;;;;;;5.10;2.47;;;16.60;99.90;;;;;;5050271;28;20025;-74
2022/10/17 06:39:32;;;;;;;13.50;5.38;;;16.60;99.90;;;;;;5065619;28;20116;-73
2022/10/17 06:42:02;;;;;;;3.85;3.20;;;16.70;99.90;;;;;;5049892;28;20479;-75
2022/10/17 06:44:30;;;;;;;3.40;2.47;;;16.70;99.90;;;;;;5050202;28;20021;-76
2022/10/17 06:46:57;;;;;;;4.95;2.30;;;16.80;99.90;;;;;;5050850;28;20025;-75
2022/10/17 06:49:23;;;;;;;2.75;2.08;;;16.80;99.90;;;;;;5050060;28;20037;-74
2022/10/17 06:51:49;;;;;;;8.10;2.35;;;16.80;99.90;;;;;;5049927;28;20087;-73
2022/10/17 06:54:14;;;;;;;4.22;2.15;;;16.80;99.90;;;;;;5049760;28;20033;-77
2022/10/17 06:56:40;;;;;;;5.53;2.40;;;16.90;99.90;;;;;;5052295;28;20053;-74
2022/10/17 06:59:07;;;;;;;5.13;2.42;;;16.90;99.90;;;;;;5053706;28;20036;-77
2022/10/17 07:01:33;;;;;;;3.77;1.70;;;17.00;99.90;;;;;;5053793;28;20029;-78
2022/10/17 07:03:59;;;;;;;3.67;2.30;;;17.00;99.90;;;;;;5053294;28;20501;-76
2022/10/17 07:06:25;;;;;;;8.63;2.40;;;17.00;99.90;;;;;;5053500;28;20043;-77
2022/10/17 07:08:51;;;;;;;5.15;2.40;;;17.10;99.90;;;;;;5052495;28;20068;-76
2022/10/17 07:11:20;;;;;;;3.47;2.08;;;17.10;99.90;;;;;;5053968;28;20017;-76
2022/10/17 07:13:46;;;;;;;3.83;2.35;;;17.10;99.90;;;;;;5053233;28;20052;-80
2022/10/17 07:16:13;;;;;;;4.38;2.17;;;17.20;99.90;;;;;;5053188;28;20029;-75
2022/10/17 07:18:39;;;;;;;2.88;2.03;;;17.20;99.90;;;;;;5052794;28;20067;-75
2022/10/17 07:21:05;;;;;;;3.40;2.30;;;17.20;99.90;;;;;;5053316;28;20044;-76
2022/10/17 07:23:33;;;;;;;6.35;2.42;;;17.30;99.90;;;;;;5053328;28;20343;-74
2022/10/17 07:26:06;;;;;;;7.97;4.40;;;17.40;99.90;;;;;;5053721;28;20021;-74
2022/10/17 07:28:33;;;;;;;6.40;3.05;;;17.40;99.90;;;;;;5068561;28;20490;-74
2022/10/17 07:31:04;;;;;;;4.38;2.20;;;17.50;99.90;;;;;;5068767;28;20362;-77
2022/10/17 07:33:30;;;;;;;6.45;2.40;;;17.60;99.90;;;;;;5052968;28;20044;-75
2022/10/17 07:35:58;;;;;;;3.20;2.53;;;17.70;99.90;;;;;;5053166;28;20033;-76
2022/10/17 07:38:24;;;;;;;8.52;2.15;;;17.70;99.90;;;;;;5053589;28;20100;-77
2022/10/17 07:41:00;;;;;;;8.35;2.83;;;17.80;99.90;;;;;;5052831;28;20041;-77
2022/10/17 07:43:28;;;;;;;6.20;1.80;;;17.80;99.90;;;;;;5052828;28;20470;-76
2022/10/17 07:45:54;;;;;;;3.78;1.77;;;17.90;99.90;;;;;;5053057;28;20037;-77
2022/10/17 07:48:21;;;;;;;4.35;2.33;;;18.00;99.90;;;;;;5052626;28;20029;-77
2022/10/17 07:50:47;;;;;;;5.15;2.20;;;18.00;99.90;;;;;;5052584;28;20025;-79
2022/10/17 07:53:13;;;;;;;3.70;2.30;;;18.10;99.90;;;;;;5068730;28;20021;-79
2022/10/17 07:55:40;;;;;;;5.10;2.03;;;18.20;99.90;;;;;;5051331;28;20033;-78
2022/10/17 07:58:06;;;;;;;5.22;2.20;;;18.20;99.90;;;;;;5067937;28;20111;-75
2022/10/17 08:00:32;;;;;;;3.97;1.92;;;18.30;99.90;;;;;;5052204;28;20041;-76
2022/10/17 08:02:58;;;;;;;5.13;2.20;;;18.30;99.90;;;;;;5067532;28;20033;-74
2022/10/17 08:05:24;;;;;;;5.13;2.08;;;18.40;99.90;;;;;;5052691;28;20025;-74
2022/10/17 08:07:49;;;;;;;10.60;4.53;;;18.40;99.90;;;;;;5051364;28;20131;-73
2022/10/17 08:10:15;;;;;;;11.20;5.95;;;18.50;99.90;;;;;;5051787;28;20037;-75
2022/10/17 08:12:41;;;;;;;12.43;3.25;;;18.50;99.90;;;;;;5052062;28;20049;-75
2022/10/17 08:15:09;;;;;;;5.70;2.08;;;18.60;99.90;;;;;;5052845;28;20095;-74
2022/10/17 08:17:36;;;;;;;2.20;1.88;;;18.60;99.90;;;;;;5052297;28;20029;-75
2022/10/17 08:20:03;;;;;;;6.47;2.50;;;18.70;99.90;;;;;;5052255;28;20024;-71
2022/10/17 08:22:29;;;;;;;4.77;2.00;;;18.80;99.90;;;;;;5050721;28;20291;-72
2022/10/17 08:24:55;;;;;;;5.60;2.40;;;18.80;99.90;;;;;;5071542;28;20033;-75
2022/10/17 08:27:23;;;;;;;3.40;2.15;;;18.90;99.90;;;;;;5070975;28;20036;-74
2022/10/17 08:29:52;;;;;;;5.93;2.28;;;19.00;99.90;;;;;;5071717;28;20075;-75
2022/10/17 08:32:24;;;;;;;6.85;2.72;;;19.10;99.90;;;;;;5072174;28;20021;-76
2022/10/17 08:34:50;;;;;;;4.25;1.88;;;19.20;99.90;;;;;;5072017;28;20544;-74
2022/10/17 08:37:17;;;;;;;7.93;2.38;;;19.30;99.90;;;;;;5071724;28;20409;-76
2022/10/17 08:39:43;;;;;;;5.57;2.67;;;19.40;99.90;;;;;;5071577;28;20112;-74
2022/10/17 08:42:33;;;;;;;5.47;2.17;;;19.60;99.90;;;;;;5071707;28;20119;-74
2022/10/17 08:45:30;;;;;;;6.90;2.20;;;19.70;99.90;;;;;;5071373;28;20027;-74
2022/10/17 08:47:59;;;;;;;5.25;3.08;;;19.70;99.90;;;;;;5071842;28;20051;-76
2022/10/17 08:50:49;;;;;;;3.28;2.15;;;19.80;99.90;;;;;;5072267;28;20028;-74
2022/10/17 08:53:24;;;;;;;11.95;2.30;;;19.90;99.90;;;;;;5070368;28;20033;-72
2022/10/17 08:55:52;;;;;;;4.97;2.15;;;20.00;99.90;;;;;;5071153;28;20737;-73
2022/10/17 08:58:18;;;;;;;5.63;2.40;;;20.10;99.90;;;;;;5071064;28;20364;-74
2022/10/17 09:01:05;;;;;;;6.70;2.53;;;20.10;99.90;;;;;;5071002;28;20547;-74
2022/10/17 09:03:51;;;;;;;20.52;7.40;;;20.20;99.90;;;;;;5069679;28;20065;-72
2022/10/17 09:06:54;;;;;;;6.13;3.95;;;20.20;99.90;;;;;;5071875;28;20028;-72
2022/10/17 09:09:41;;;;;;;4.75;2.30;;;20.20;99.90;;;;;;5064913;28;20028;-75
2022/10/17 09:12:23;;;;;;;;;;;20.30;99.90;;;;;;5070447;28;20041;-75
2022/10/17 09:15:04;;;;;;;4.00;1.90;;;20.30;99.90;;;;;;5070649;28;20316;-76
2022/10/17 09:17:51;;;;;;;6.28;2.70;;;20.40;99.90;;;;;;5071118;28;20043;-75
2022/10/17 09:20:20;;;;;;;7.43;3.00;;;20.40;99.90;;;;;;5070572;28;20029;-73
2022/10/17 09:23:10;;;;;;;13.38;2.08;;;20.40;99.90;;;;;;5069443;28;20470;-72
2022/10/17 09:25:57;;;;;;;4.63;1.98;;;20.40;99.90;;;;;;5070059;28;20132;-73
2022/10/17 09:28:38;;;;;;;3.60;2.20;;;20.50;99.90;;;;;;5071747;28;20089;-74
2022/10/17 09:31:08;;;;;;;4.03;2.38;;;20.60;99.90;;;;;;5071892;28;20024;-73
2022/10/17 09:33:43;;;;;;;5.03;1.90;;;20.50;99.90;;;;;;5069747;28;20386;-75
2022/10/17 09:36:33;;;;;;;3.53;1.88;;;20.60;99.90;;;;;;5070894;28;20020;-75
2022/10/17 09:39:03;;;;;;;10.90;2.58;;;20.70;99.90;;;;;;5071119;28;20029;-74
2022/10/17 09:41:54;;;;;;;5.60;2.72;;;20.90;99.90;;;;;;5062696;28;20032;-74
2022/10/17 09:44:22;;;;;;;7.65;2.45;;;21.30;99.90;;;;;;5071216;28;20016;-75
2022/10/17 09:47:07;;;;;;;;;;;21.90;99.90;;;;;;5071371;28;20339;-74
2022/10/17 09:49:38;;;;;;;4.85;2.05;;;22.50;99.70;;;;;;5070579;28;20345;-75
2022/10/17 09:52:15;;;;;;;3.22;2.22;;;22.50;98.60;;;;;;5071119;28;20024;-77
2022/10/17 09:54:45;;;;;;;7.63;1.73;;;23.10;98.50;;;;;;5070221;28;20028;-74
2022/10/17 09:57:13;;;;;;;1.73;1.50;;;23.40;97.90;;;;;;5070536;28;20494;-76
2022/10/17 09:59:59;;;;;;;6.85;2.13;;;23.50;97.80;;;;;;5071625;28;20029;-74
2022/10/17 10:02:27;;;;;;;3.22;2.10;;;23.40;97.50;;;;;;5070882;28;20040;-74
2022/10/17 10:05:03;;;;;;;5.90;2.67;;;23.30;97.80;;;;;;5070338;28;20029;-73
2022/10/17 10:07:32;;;;;;;5.82;2.42;;;23.30;97.70;;;;;;5070596;28;20103;-73
2022/10/17 10:10:00;;;;;;;10.35;6.43;;;23.00;97.70;;;;;;5070489;28;20332;-74
2022/10/17 10:12:35;;;;;;;3.47;2.20;;;22.90;97.90;;;;;;5069340;28;20193;-74
2022/10/17 10:15:01;;;;;;;6.28;2.15;;;22.60;97.90;;;;;;5069066;28;20114;-76
2022/10/17 10:17:42;;;;;;;3.13;1.80;;;22.90;98.40;;;;;;5070367;28;20029;-74
2022/10/17 10:20:29;;;;;;;5.70;1.70;;;23.10;97.80;;;;;;5070659;28;20043;-76
2022/10/17 10:23:04;;;;;;;7.32;2.10;;;23.30;97.50;;;;;;5070744;28;20067;-75
2022/10/17 10:25:30;;;;;;;4.60;1.70;;;23.40;97.60;;;;;;5070300;28;20051;-75
2022/10/17 10:27:56;;;;;;;4.18;2.08;;;23.40;97.70;;;;;;5070568;28;20024;-78
2022/10/17 10:30:28;;;;;;;5.63;1.83;;;23.30;97.00;;;;;;5070963;28;20416;-75
2022/10/17 10:32:57;;;;;;;7.20;2.17;;;23.20;97.50;;;;;;5074274;28;20021;-77
2022/10/17 10:35:34;;;;;;;8.98;2.17;;;23.10;97.30;;;;;;5074597;28;20019;-78
2022/10/17 10:38:02;;;;;;;6.57;2.13;;;23.10;97.60;;;;;;5074059;28;20040;-74
2022/10/17 10:40:33;;;;;;;4.22;1.77;;;23.20;97.50;;;;;;5072826;28;20668;-75
2022/10/17 10:43:00;;;;;;;4.80;2.28;;;23.20;97.50;;;;;;5074448;28;20044;-78
2022/10/17 10:45:40;;;;;;;9.32;2.50;;;23.20;97.60;;;;;;5074734;28;20040;-75
2022/10/17 10:48:35;;;;;;;6.80;2.30;;;22.90;97.20;;;;;;5074206;28;20102;-76
2022/10/17 10:51:18;;;;;;;6.20;2.30;;;22.90;97.60;;;;;;5072572;28;20413;-75
2022/10/17 10:53:50;;;;;;;2.75;2.13;;;22.90;97.50;;;;;;5072485;28;20107;-76
2022/10/17 10:56:39;;;;;;;6.90;2.88;;;22.80;97.40;;;;;;5073055;28;20032;-73
2022/10/17 10:59:08;;;;;;;8.77;2.45;;;22.80;97.40;;;;;;5073566;28;20064;-74
2022/10/17 11:02:11;;;;;;;8.68;2.08;;;22.70;97.40;;;;;;5073434;28;20082;-73
2022/10/17 11:04:45;;;;;;;7.03;2.05;;;22.60;97.70;;;;;;5073226;28;20044;-73
2022/10/17 11:07:21;;;;;;;6.80;2.15;;;22.60;98.00;;;;;;5073523;28;20466;-77
2022/10/17 11:09:59;;;;;;;8.27;2.60;;;22.70;98.20;;;;;;5073114;28;20036;-75
2022/10/17 11:12:37;;;;;;;;;;;22.60;97.90;;;;;;5073666;28;20048;-79
2022/10/17 11:15:22;;;;;;;3.85;1.80;;;22.80;97.90;;;;;;5073340;28;19916;-75
2022/10/17 11:18:01;;;;;;;4.75;2.13;;;22.80;97.80;;;;;;5073024;28;20323;-74
2022/10/17 11:20:37;;;;;;;5.78;1.80;;;23.00;97.50;;;;;;5073014;28;20103;-74
2022/10/17 11:23:52;;;;;;;6.30;1.92;;;23.10;97.50;;;;;;5072664;28;20413;-76
2022/10/17 11:26:25;;;;;;;6.40;2.22;;;23.10;96.80;;;;;;5058096;28;20115;-76
2022/10/17 11:28:56;;;;;;;5.10;2.28;;;22.90;96.20;;;;;;5073124;28;20029;-75
2022/10/17 11:31:25;;;;;;;2.45;1.95;;;22.90;96.30;;;;;;5072952;28;20118;-75
2022/10/17 11:34:13;;;;;;;8.63;2.30;;;22.80;96.20;;;;;;5073249;28;20106;-74
2022/10/17 11:36:42;;;;;;;5.45;2.03;;;22.80;96.50;;;;;;5066132;28;20138;-73
2022/10/17 11:39:15;;;;;;;7.93;1.98;;;22.70;96.30;;;;;;5073007;28;20032;-74
2022/10/17 11:41:44;;;;;;;4.18;1.85;;;22.70;96.40;;;;;;5072050;28;20027;-73
2022/10/17 11:44:32;;;;;;;3.08;2.00;;;22.60;96.40;;;;;;5072807;28;20039;-75
2022/10/17 11:47:16;;;;;;;8.15;2.10;;;22.60;96.40;;;;;;5073094;28;20414;-76
2022/10/17 11:49:56;;;;;;;9.27;2.63;;;22.60;96.60;;;;;;5071462;28;20420;-76
2022/10/17 11:52:40;;;;;;;6.03;2.47;;;22.60;96.60;;;;;;5072571;28;20036;-76
2022/10/17 11:55:18;;;;;;;7.32;2.38;;;22.60;96.50;;;;;;5072384;28;20551;-76
2022/10/17 11:58:19;;;;;;;6.72;2.05;;;22.60;96.60;;;;;;5072451;28;20028;-76
2022/10/17 12:00:50;;;;;;;3.17;1.63;;;22.60;96.60;;;;;;5071209;28;20362;-75
2022/10/17 12:03:47;;;;;;;11.63;2.08;;;22.60;96.70;;;;;;5070845;28;20500;-77
2022/10/17 12:06:27;;;;;;;5.68;1.88;;;22.60;96.70;;;;;;5071303;28;20101;-76
2022/10/17 12:09:06;;;;;;;7.10;2.53;;;22.60;96.70;;;;;;5072392;28;20024;-75
2022/10/17 12:11:56;;;;;;;7.38;2.25;;;22.60;96.60;;;;;;5072256;28;20024;-76
2022/10/17 12:14:39;;;;;;;6.70;2.40;;;22.60;96.80;;;;;;5072903;28;20150;-75
2022/10/17 12:17:20;;;;;;;5.18;2.13;;;22.50;96.80;;;;;;5072638;28;20123;-74
2022/10/17 12:19:46;;;;;;;8.82;2.20;;;22.60;96.60;;;;;;5072418;28;20503;-76
2022/10/17 12:22:11;;;;;;;5.80;2.20;;;22.50;96.70;;;;;;5072012;28;20358;-75
2022/10/17 12:24:43;;;;;;;7.57;2.38;;;22.60;96.70;;;;;;5072437;28;20028;-75
2022/10/17 12:27:45;;;;;;;9.00;2.05;;;22.60;96.50;;;;;;5071969;28;20017;-77
2022/10/17 12:30:21;;;;;;;4.63;2.58;;;22.60;96.50;;;;;;5065096;28;20020;-75
2022/10/17 12:33:28;;;;;;;5.22;2.30;;;22.50;96.40;;;;;;5072065;28;20036;-75
2022/10/17 12:36:16;;;;;;;8.43;3.00;;;22.50;96.50;;;;;;5070988;28;20348;-77
2022/10/17 12:38:46;;;;;;;6.72;3.30;;;22.50;96.60;;;;;;5070928;28;20116;-76
2022/10/17 12:41:12;;;;;;;9.43;2.78;;;22.50;96.60;;;;;;5072059;28;20071;-76
2022/10/17 12:43:52;;;;;;;4.45;2.50;;;22.50;96.60;;;;;;5071653;28;20060;-75
2022/10/17 12:46:41;;;;;;;8.07;4.20;;;22.50;96.60;;;;;;5071565;28;20108;-76
2022/10/17 12:49:37;;;;;;;4.72;2.50;;;22.50;96.40;;;;;;5071604;28;20068;-76
2022/10/17 12:52:28;;;;;;;10.87;2.47;;;22.50;96.30;;;;;;5071661;28;20028;-76
2022/10/17 12:55:03;;;;;;;10.52;6.72;;;22.50;96.40;;;;;;5070753;28;20454;-76
2022/10/17 12:57:46;;;;;;;5.80;2.45;;;22.60;96.40;;;;;;5071373;28;20032;-76
2022/10/17 13:00:18;;;;;;;7.28;2.53;;;22.60;96.20;;;;;;5071352;28;20115;-75
2022/10/17 13:02:44;;;;;;;5.68;2.13;;;22.60;96.20;;;;;;5071507;28;20024;-76
2022/10/17 13:05:27;;;;;;;5.72;2.30;;;22.60;96.30;;;;;;5072455;28;20029;-78
2022/10/17 13:07:59;;;;;;;13.07;3.17;;;22.60;96.30;;;;;;5071512;28;20036;-75
2022/10/17 13:10:31;;;;;;;5.78;2.25;;;22.60;96.30;;;;;;5071398;28;20341;-76
2022/10/17 13:13:11;;;;;;;6.47;2.50;;;22.60;96.40;;;;;;5071032;28;20381;-78